sensor_id;sensor_type;location;lat;lon;timestamp;P1;durP1;ratioP1;P2;durP2;ratioP2
39848;SDS011;25518;47.878;15.914;2023-08-31T00:01:11;2.00;;;1.00;;
39848;SDS011;25518;47.878;15.914;2023-08-31T00:03:42;1.70;;;1.00;;
39848;SDS011;25518;47.878;15.914;2023-08-31T00:06:14;1.55;;;0.75;;
39848;SDS011;25518;47.878;15.914;2023-08-31T00:08:45;1.85;;;0.90;;
39848;SDS011;25518;47.878;15.914;2023-08-31T00:11:17;2.30;;;0.80;;
39848;SDS011;25518;47.878;15.914;2023-08-31T00:13:48;1.43;;;0.97;;
39848;SDS011;25518;47.878;15.914;2023-08-31T00:16:23;2.83;;;1.00;;
39848;SDS011;25518;47.878;15.914;2023-08-31T00:18:56;1.83;;;1.07;;
39848;SDS011;25518;47.878;15.914;2023-08-31T00:21:27;1.55;;;1.05;;
39848;SDS011;25518;47.878;15.914;2023-08-31T00:24:00;1.98;;;0.93;;
39848;SDS011;25518;47.878;15.914;2023-08-31T00:26:31;1.65;;;1.02;;
39848;SDS011;25518;47.878;15.914;2023-08-31T00:29:03;1.30;;;0.90;;
39848;SDS011;25518;47.878;15.914;2023-08-31T00:31:36;3.33;;;1.30;;
39848;SDS011;25518;47.878;15.914;2023-08-31T00:34:07;1.50;;;0.90;;
39848;SDS011;25518;47.878;15.914;2023-08-31T00:36:38;1.67;;;0.98;;
39848;SDS011;25518;47.878;15.914;2023-08-31T00:39:09;1.70;;;1.20;;
39848;SDS011;25518;47.878;15.914;2023-08-31T00:41:41;2.58;;;1.13;;
39848;SDS011;25518;47.878;15.914;2023-08-31T00:44:11;2.05;;;1.10;;
39848;SDS011;25518;47.878;15.914;2023-08-31T00:46:42;2.10;;;1.05;;
39848;SDS011;25518;47.878;15.914;2023-08-31T00:49:13;1.40;;;0.90;;
39848;SDS011;25518;47.878;15.914;2023-08-31T00:51:45;2.28;;;1.00;;
39848;SDS011;25518;47.878;15.914;2023-08-31T00:54:19;1.35;;;0.85;;
39848;SDS011;25518;47.878;15.914;2023-08-31T00:56:52;2.80;;;1.20;;
39848;SDS011;25518;47.878;15.914;2023-08-31T00:59:24;2.67;;;1.30;;
39848;SDS011;25518;47.878;15.914;2023-08-31T01:02:02;3.63;;;1.02;;
39848;SDS011;25518;47.878;15.914;2023-08-31T01:04:48;2.83;;;1.00;;
39848;SDS011;25518;47.878;15.914;2023-08-31T01:11:00;2.37;;;1.23;;
39848;SDS011;25518;47.878;15.914;2023-08-31T01:13:29;1.45;;;1.00;;
39848;SDS011;25518;47.878;15.914;2023-08-31T01:16:03;1.42;;;0.80;;
39848;SDS011;25518;47.878;15.914;2023-08-31T01:18:38;1.80;;;0.90;;
39848;SDS011;25518;47.878;15.914;2023-08-31T01:21:14;1.88;;;1.13;;
39848;SDS011;25518;47.878;15.914;2023-08-31T01:23:54;3.63;;;0.90;;
39848;SDS011;25518;47.878;15.914;2023-08-31T01:26:28;2.25;;;1.05;;
39848;SDS011;25518;47.878;15.914;2023-08-31T01:28:59;2.38;;;1.10;;
39848;SDS011;25518;47.878;15.914;2023-08-31T01:31:30;2.50;;;1.00;;
39848;SDS011;25518;47.878;15.914;2023-08-31T01:34:01;2.17;;;1.00;;
39848;SDS011;25518;47.878;15.914;2023-08-31T01:36:32;2.42;;;1.20;;
39848;SDS011;25518;47.878;15.914;2023-08-31T01:41:55;1.30;;;0.75;;
39848;SDS011;25518;47.878;15.914;2023-08-31T01:44:32;1.38;;;0.93;;
39848;SDS011;25518;47.878;15.914;2023-08-31T01:47:06;1.95;;;1.00;;
39848;SDS011;25518;47.878;15.914;2023-08-31T01:49:38;1.70;;;1.00;;
39848;SDS011;25518;47.878;15.914;2023-08-31T01:52:09;2.42;;;1.25;;
39848;SDS011;25518;47.878;15.914;2023-08-31T01:54:40;1.40;;;0.88;;
39848;SDS011;25518;47.878;15.914;2023-08-31T01:57:11;1.90;;;1.00;;
39848;SDS011;25518;47.878;15.914;2023-08-31T01:59:43;3.30;;;1.27;;
39848;SDS011;25518;47.878;15.914;2023-08-31T02:02:14;2.45;;;1.02;;
39848;SDS011;25518;47.878;15.914;2023-08-31T02:04:45;1.58;;;0.88;;
39848;SDS011;25518;47.878;15.914;2023-08-31T02:07:17;2.47;;;0.85;;
39848;SDS011;25518;47.878;15.914;2023-08-31T02:09:49;3.90;;;1.07;;
39848;SDS011;25518;47.878;15.914;2023-08-31T02:12:20;1.98;;;1.00;;
39848;SDS011;25518;47.878;15.914;2023-08-31T02:14:51;1.58;;;0.98;;
39848;SDS011;25518;47.878;15.914;2023-08-31T02:17:22;1.42;;;0.90;;
39848;SDS011;25518;47.878;15.914;2023-08-31T02:19:53;1.75;;;0.90;;
39848;SDS011;25518;47.878;15.914;2023-08-31T02:22:24;2.05;;;1.02;;
39848;SDS011;25518;47.878;15.914;2023-08-31T02:24:54;2.05;;;0.80;;
39848;SDS011;25518;47.878;15.914;2023-08-31T02:27:25;1.80;;;0.90;;
39848;SDS011;25518;47.878;15.914;2023-08-31T02:29:57;1.65;;;0.90;;
39848;SDS011;25518;47.878;15.914;2023-08-31T02:32:27;1.92;;;1.10;;
39848;SDS011;25518;47.878;15.914;2023-08-31T02:34:58;1.50;;;0.90;;
39848;SDS011;25518;47.878;15.914;2023-08-31T02:37:29;2.75;;;1.05;;
39848;SDS011;25518;47.878;15.914;2023-08-31T02:40:01;1.38;;;0.90;;
39848;SDS011;25518;47.878;15.914;2023-08-31T02:42:32;1.67;;;0.90;;
39848;SDS011;25518;47.878;15.914;2023-08-31T02:45:03;3.33;;;1.10;;
39848;SDS011;25518;47.878;15.914;2023-08-31T02:47:35;1.90;;;0.98;;
39848;SDS011;25518;47.878;15.914;2023-08-31T02:50:06;1.50;;;0.90;;
39848;SDS011;25518;47.878;15.914;2023-08-31T02:52:37;2.33;;;1.10;;
39848;SDS011;25518;47.878;15.914;2023-08-31T02:55:09;2.88;;;0.95;;
39848;SDS011;25518;47.878;15.914;2023-08-31T02:57:40;2.60;;;1.00;;
39848;SDS011;25518;47.878;15.914;2023-08-31T03:00:11;2.67;;;1.03;;
39848;SDS011;25518;47.878;15.914;2023-08-31T03:20:18;1.63;;;0.90;;
39848;SDS011;25518;47.878;15.914;2023-08-31T03:22:49;2.40;;;1.00;;
39848;SDS011;25518;47.878;15.914;2023-08-31T03:25:19;2.17;;;1.02;;
39848;SDS011;25518;47.878;15.914;2023-08-31T03:27:51;2.30;;;1.00;;
39848;SDS011;25518;47.878;15.914;2023-08-31T03:30:21;3.35;;;1.30;;
39848;SDS011;25518;47.878;15.914;2023-08-31T03:32:52;2.40;;;1.20;;
39848;SDS011;25518;47.878;15.914;2023-08-31T03:35:24;1.83;;;0.85;;
39848;SDS011;25518;47.878;15.914;2023-08-31T03:37:57;1.83;;;1.08;;
39848;SDS011;25518;47.878;15.914;2023-08-31T03:40:28;1.40;;;0.88;;
39848;SDS011;25518;47.878;15.914;2023-08-31T03:42:59;1.65;;;1.00;;
39848;SDS011;25518;47.878;15.914;2023-08-31T03:45:30;4.13;;;1.05;;
39848;SDS011;25518;47.878;15.914;2023-08-31T03:48:01;3.60;;;1.17;;
39848;SDS011;25518;47.878;15.914;2023-08-31T03:50:32;2.05;;;1.20;;
39848;SDS011;25518;47.878;15.914;2023-08-31T03:53:03;1.67;;;0.93;;
39848;SDS011;25518;47.878;15.914;2023-08-31T03:55:35;2.85;;;1.30;;
39848;SDS011;25518;47.878;15.914;2023-08-31T03:58:07;1.98;;;0.90;;
39848;SDS011;25518;47.878;15.914;2023-08-31T04:00:38;1.33;;;0.80;;
39848;SDS011;25518;47.878;15.914;2023-08-31T04:03:09;3.20;;;1.00;;
39848;SDS011;25518;47.878;15.914;2023-08-31T04:05:41;2.90;;;1.45;;
39848;SDS011;25518;47.878;15.914;2023-08-31T04:08:12;1.90;;;1.17;;
39848;SDS011;25518;47.878;15.914;2023-08-31T04:10:43;1.48;;;0.80;;
39848;SDS011;25518;47.878;15.914;2023-08-31T04:13:14;2.70;;;1.03;;
39848;SDS011;25518;47.878;15.914;2023-08-31T04:15:45;2.28;;;0.75;;
39848;SDS011;25518;47.878;15.914;2023-08-31T04:18:16;1.80;;;0.90;;
39848;SDS011;25518;47.878;15.914;2023-08-31T04:20:51;2.03;;;0.88;;
39848;SDS011;25518;47.878;15.914;2023-08-31T04:23:24;1.65;;;1.00;;
39848;SDS011;25518;47.878;15.914;2023-08-31T04:25:55;1.40;;;0.90;;
39848;SDS011;25518;47.878;15.914;2023-08-31T04:28:27;1.67;;;0.93;;
39848;SDS011;25518;47.878;15.914;2023-08-31T04:30:58;2.40;;;1.10;;
39848;SDS011;25518;47.878;15.914;2023-08-31T04:33:29;3.22;;;1.25;;
39848;SDS011;25518;47.878;15.914;2023-08-31T04:36:00;1.60;;;1.00;;
39848;SDS011;25518;47.878;15.914;2023-08-31T04:38:31;1.40;;;0.82;;
39848;SDS011;25518;47.878;15.914;2023-08-31T04:41:04;2.80;;;1.05;;
39848;SDS011;25518;47.878;15.914;2023-08-31T04:43:36;1.90;;;1.07;;
39848;SDS011;25518;47.878;15.914;2023-08-31T04:46:07;1.65;;;0.80;;
39848;SDS011;25518;47.878;15.914;2023-08-31T04:48:38;2.20;;;1.00;;
39848;SDS011;25518;47.878;15.914;2023-08-31T04:51:26;1.50;;;0.90;;
39848;SDS011;25518;47.878;15.914;2023-08-31T04:53:59;1.90;;;1.10;;
39848;SDS011;25518;47.878;15.914;2023-08-31T04:56:31;1.88;;;1.00;;
39848;SDS011;25518;47.878;15.914;2023-08-31T04:59:03;1.90;;;0.77;;
39848;SDS011;25518;47.878;15.914;2023-08-31T05:01:34;2.33;;;1.20;;
39848;SDS011;25518;47.878;15.914;2023-08-31T05:04:05;1.63;;;0.98;;
39848;SDS011;25518;47.878;15.914;2023-08-31T05:06:36;2.70;;;1.10;;
39848;SDS011;25518;47.878;15.914;2023-08-31T05:09:07;1.48;;;0.80;;
39848;SDS011;25518;47.878;15.914;2023-08-31T05:11:40;1.70;;;1.00;;
39848;SDS011;25518;47.878;15.914;2023-08-31T05:14:11;2.30;;;1.33;;
39848;SDS011;25518;47.878;15.914;2023-08-31T05:16:41;2.50;;;1.10;;
39848;SDS011;25518;47.878;15.914;2023-08-31T05:19:13;2.20;;;0.80;;
39848;SDS011;25518;47.878;15.914;2023-08-31T05:21:44;1.48;;;0.85;;
39848;SDS011;25518;47.878;15.914;2023-08-31T05:24:15;1.83;;;0.80;;
39848;SDS011;25518;47.878;15.914;2023-08-31T05:26:46;3.77;;;1.10;;
39848;SDS011;25518;47.878;15.914;2023-08-31T05:29:17;1.90;;;1.00;;
39848;SDS011;25518;47.878;15.914;2023-08-31T05:31:48;2.75;;;1.15;;
39848;SDS011;25518;47.878;15.914;2023-08-31T05:34:21;1.52;;;0.80;;
39848;SDS011;25518;47.878;15.914;2023-08-31T05:36:53;3.47;;;1.00;;
39848;SDS011;25518;47.878;15.914;2023-08-31T05:39:24;1.90;;;0.90;;
39848;SDS011;25518;47.878;15.914;2023-08-31T05:41:55;2.13;;;1.05;;
39848;SDS011;25518;47.878;15.914;2023-08-31T05:44:26;1.30;;;0.80;;
39848;SDS011;25518;47.878;15.914;2023-08-31T05:46:57;2.15;;;0.88;;
39848;SDS011;25518;47.878;15.914;2023-08-31T05:49:28;1.88;;;1.10;;
39848;SDS011;25518;47.878;15.914;2023-08-31T05:51:59;2.97;;;0.85;;
39848;SDS011;25518;47.878;15.914;2023-08-31T05:54:30;4.53;;;1.20;;
39848;SDS011;25518;47.878;15.914;2023-08-31T05:57:02;4.00;;;1.00;;
39848;SDS011;25518;47.878;15.914;2023-08-31T05:59:33;3.83;;;1.15;;
39848;SDS011;25518;47.878;15.914;2023-08-31T06:02:04;1.67;;;1.03;;
39848;SDS011;25518;47.878;15.914;2023-08-31T06:04:36;1.90;;;0.90;;
39848;SDS011;25518;47.878;15.914;2023-08-31T06:07:07;1.90;;;1.00;;
39848;SDS011;25518;47.878;15.914;2023-08-31T06:09:38;1.92;;;1.20;;
39848;SDS011;25518;47.878;15.914;2023-08-31T06:12:09;5.88;;;1.10;;
39848;SDS011;25518;47.878;15.914;2023-08-31T06:14:40;1.70;;;0.90;;
39848;SDS011;25518;47.878;15.914;2023-08-31T06:17:11;2.35;;;0.93;;
39848;SDS011;25518;47.878;15.914;2023-08-31T06:19:43;2.03;;;0.85;;
39848;SDS011;25518;47.878;15.914;2023-08-31T06:22:14;2.50;;;1.00;;
39848;SDS011;25518;47.878;15.914;2023-08-31T06:24:45;1.88;;;0.90;;
39848;SDS011;25518;47.878;15.914;2023-08-31T06:27:16;2.60;;;0.90;;
39848;SDS011;25518;47.878;15.914;2023-08-31T06:29:48;1.88;;;0.80;;
39848;SDS011;25518;47.878;15.914;2023-08-31T06:32:19;1.83;;;0.95;;
39848;SDS011;25518;47.878;15.914;2023-08-31T06:34:50;1.73;;;1.10;;
39848;SDS011;25518;47.878;15.914;2023-08-31T06:37:21;1.42;;;0.75;;
39848;SDS011;25518;47.878;15.914;2023-08-31T06:39:52;1.60;;;0.88;;
39848;SDS011;25518;47.878;15.914;2023-08-31T06:42:23;1.05;;;0.60;;
39848;SDS011;25518;47.878;15.914;2023-08-31T06:44:54;0.82;;;0.50;;
39848;SDS011;25518;47.878;15.914;2023-08-31T06:47:27;2.35;;;0.90;;
39848;SDS011;25518;47.878;15.914;2023-08-31T06:49:58;2.65;;;1.00;;
39848;SDS011;25518;47.878;15.914;2023-08-31T06:52:30;1.60;;;0.93;;
39848;SDS011;25518;47.878;15.914;2023-08-31T06:55:01;2.58;;;0.90;;
39848;SDS011;25518;47.878;15.914;2023-08-31T06:57:33;1.33;;;0.70;;
39848;SDS011;25518;47.878;15.914;2023-08-31T07:00:05;1.70;;;0.90;;
39848;SDS011;25518;47.878;15.914;2023-08-31T07:02:39;1.48;;;0.80;;
39848;SDS011;25518;47.878;15.914;2023-08-31T07:05:12;1.60;;;0.82;;
39848;SDS011;25518;47.878;15.914;2023-08-31T07:07:43;1.80;;;0.80;;
39848;SDS011;25518;47.878;15.914;2023-08-31T07:10:14;1.13;;;0.70;;
39848;SDS011;25518;47.878;15.914;2023-08-31T07:12:45;1.33;;;0.73;;
39848;SDS011;25518;47.878;15.914;2023-08-31T07:15:16;1.60;;;0.80;;
39848;SDS011;25518;47.878;15.914;2023-08-31T07:17:47;2.25;;;1.00;;
39848;SDS011;25518;47.878;15.914;2023-08-31T07:20:18;2.75;;;1.10;;
39848;SDS011;25518;47.878;15.914;2023-08-31T07:22:49;2.30;;;1.02;;
39848;SDS011;25518;47.878;15.914;2023-08-31T07:25:20;2.00;;;0.90;;
39848;SDS011;25518;47.878;15.914;2023-08-31T07:27:51;3.20;;;1.27;;
39848;SDS011;25518;47.878;15.914;2023-08-31T07:30:22;2.03;;;0.95;;
39848;SDS011;25518;47.878;15.914;2023-08-31T07:32:53;2.20;;;1.10;;
39848;SDS011;25518;47.878;15.914;2023-08-31T07:35:24;1.75;;;0.88;;
39848;SDS011;25518;47.878;15.914;2023-08-31T07:37:55;1.33;;;0.77;;
39848;SDS011;25518;47.878;15.914;2023-08-31T07:40:26;2.15;;;1.00;;
39848;SDS011;25518;47.878;15.914;2023-08-31T07:42:57;2.38;;;1.10;;
39848;SDS011;25518;47.878;15.914;2023-08-31T07:45:28;2.17;;;1.00;;
39848;SDS011;25518;47.878;15.914;2023-08-31T07:47:59;1.83;;;1.02;;
39848;SDS011;25518;47.878;15.914;2023-08-31T07:50:30;2.22;;;1.08;;
39848;SDS011;25518;47.878;15.914;2023-08-31T07:53:01;2.47;;;1.17;;
39848;SDS011;25518;47.878;15.914;2023-08-31T07:55:33;2.60;;;1.20;;
39848;SDS011;25518;47.878;15.914;2023-08-31T07:58:06;2.83;;;1.38;;
39848;SDS011;25518;47.878;15.914;2023-08-31T08:00:37;1.77;;;0.90;;
39848;SDS011;25518;47.878;15.914;2023-08-31T08:03:08;1.83;;;0.93;;
39848;SDS011;25518;47.878;15.914;2023-08-31T08:05:39;2.53;;;1.13;;
39848;SDS011;25518;47.878;15.914;2023-08-31T08:08:11;2.05;;;1.02;;
39848;SDS011;25518;47.878;15.914;2023-08-31T08:10:42;2.83;;;1.60;;
39848;SDS011;25518;47.878;15.914;2023-08-31T08:13:13;1.25;;;0.85;;
39848;SDS011;25518;47.878;15.914;2023-08-31T08:15:46;3.08;;;1.00;;
39848;SDS011;25518;47.878;15.914;2023-08-31T08:18:17;1.97;;;1.03;;
39848;SDS011;25518;47.878;15.914;2023-08-31T08:20:48;2.70;;;1.30;;
39848;SDS011;25518;47.878;15.914;2023-08-31T08:23:21;3.53;;;1.35;;
39848;SDS011;25518;47.878;15.914;2023-08-31T08:25:52;2.65;;;1.00;;
39848;SDS011;25518;47.878;15.914;2023-08-31T08:28:23;2.50;;;1.20;;
39848;SDS011;25518;47.878;15.914;2023-08-31T08:30:53;1.43;;;0.80;;
39848;SDS011;25518;47.878;15.914;2023-08-31T08:33:24;2.33;;;1.13;;
39848;SDS011;25518;47.878;15.914;2023-08-31T08:35:56;1.27;;;0.80;;
39848;SDS011;25518;47.878;15.914;2023-08-31T08:38:27;1.00;;;0.63;;
39848;SDS011;25518;47.878;15.914;2023-08-31T08:41:03;2.88;;;1.15;;
39848;SDS011;25518;47.878;15.914;2023-08-31T08:43:36;1.83;;;0.85;;
39848;SDS011;25518;47.878;15.914;2023-08-31T08:46:10;1.70;;;0.80;;
39848;SDS011;25518;47.878;15.914;2023-08-31T08:48:41;1.52;;;0.70;;
39848;SDS011;25518;47.878;15.914;2023-08-31T08:51:13;1.20;;;0.70;;
39848;SDS011;25518;47.878;15.914;2023-08-31T08:53:44;1.23;;;0.60;;
39848;SDS011;25518;47.878;15.914;2023-08-31T08:56:16;1.85;;;0.70;;
39848;SDS011;25518;47.878;15.914;2023-08-31T08:58:47;4.00;;;1.63;;
39848;SDS011;25518;47.878;15.914;2023-08-31T09:01:18;2.05;;;0.82;;
39848;SDS011;25518;47.878;15.914;2023-08-31T09:03:53;1.55;;;0.68;;
39848;SDS011;25518;47.878;15.914;2023-08-31T09:06:24;1.48;;;0.70;;
39848;SDS011;25518;47.878;15.914;2023-08-31T09:08:55;1.23;;;0.70;;
39848;SDS011;25518;47.878;15.914;2023-08-31T09:11:27;1.23;;;0.63;;
39848;SDS011;25518;47.878;15.914;2023-08-31T09:13:58;1.30;;;0.50;;
39848;SDS011;25518;47.878;15.914;2023-08-31T09:16:29;1.55;;;0.70;;
39848;SDS011;25518;47.878;15.914;2023-08-31T09:19:00;1.35;;;0.70;;
39848;SDS011;25518;47.878;15.914;2023-08-31T09:21:50;1.85;;;0.70;;
39848;SDS011;25518;47.878;15.914;2023-08-31T09:24:22;1.58;;;0.65;;
39848;SDS011;25518;47.878;15.914;2023-08-31T09:26:56;0.70;;;0.47;;
39848;SDS011;25518;47.878;15.914;2023-08-31T09:29:28;1.08;;;0.55;;
39848;SDS011;25518;47.878;15.914;2023-08-31T09:31:59;1.95;;;0.60;;
39848;SDS011;25518;47.878;15.914;2023-08-31T09:34:33;1.63;;;0.73;;
39848;SDS011;25518;47.878;15.914;2023-08-31T09:37:05;1.95;;;0.80;;
39848;SDS011;25518;47.878;15.914;2023-08-31T09:39:39;1.33;;;0.60;;
39848;SDS011;25518;47.878;15.914;2023-08-31T09:42:11;0.60;;;0.43;;
39848;SDS011;25518;47.878;15.914;2023-08-31T09:44:43;0.75;;;0.38;;
39848;SDS011;25518;47.878;15.914;2023-08-31T09:47:15;1.42;;;0.70;;
39848;SDS011;25518;47.878;15.914;2023-08-31T09:49:47;1.17;;;0.70;;
39848;SDS011;25518;47.878;15.914;2023-08-31T09:52:20;1.05;;;0.60;;
39848;SDS011;25518;47.878;15.914;2023-08-31T09:54:52;2.88;;;0.60;;
39848;SDS011;25518;47.878;15.914;2023-08-31T09:57:25;0.80;;;0.47;;
39848;SDS011;25518;47.878;15.914;2023-08-31T09:59:57;0.80;;;0.50;;
39848;SDS011;25518;47.878;15.914;2023-08-31T10:02:28;1.30;;;0.60;;
39848;SDS011;25518;47.878;15.914;2023-08-31T10:05:00;1.60;;;0.75;;
39848;SDS011;25518;47.878;15.914;2023-08-31T10:07:31;1.00;;;0.50;;
39848;SDS011;25518;47.878;15.914;2023-08-31T10:10:03;0.93;;;0.43;;
39848;SDS011;25518;47.878;15.914;2023-08-31T10:12:35;0.68;;;0.40;;
39848;SDS011;25518;47.878;15.914;2023-08-31T10:15:07;0.83;;;0.40;;
39848;SDS011;25518;47.878;15.914;2023-08-31T10:17:39;1.20;;;0.60;;
39848;SDS011;25518;47.878;15.914;2023-08-31T10:20:12;1.17;;;0.50;;
39848;SDS011;25518;47.878;15.914;2023-08-31T10:22:46;0.73;;;0.47;;
39848;SDS011;25518;47.878;15.914;2023-08-31T10:25:17;1.98;;;0.70;;
39848;SDS011;25518;47.878;15.914;2023-08-31T10:27:48;1.13;;;0.63;;
39848;SDS011;25518;47.878;15.914;2023-08-31T10:35:52;1.02;;;0.40;;
39848;SDS011;25518;47.878;15.914;2023-08-31T10:38:27;0.80;;;0.50;;
39848;SDS011;25518;47.878;15.914;2023-08-31T10:41:00;1.38;;;0.50;;
39848;SDS011;25518;47.878;15.914;2023-08-31T10:44:02;1.20;;;0.60;;
39848;SDS011;25518;47.878;15.914;2023-08-31T10:46:29;1.67;;;0.60;;
39848;SDS011;25518;47.878;15.914;2023-08-31T10:51:46;1.40;;;0.70;;
39848;SDS011;25518;47.878;15.914;2023-08-31T10:54:25;1.58;;;0.52;;
39848;SDS011;25518;47.878;15.914;2023-08-31T10:57:05;0.77;;;0.40;;
39848;SDS011;25518;47.878;15.914;2023-08-31T10:59:40;1.02;;;0.57;;
39848;SDS011;25518;47.878;15.914;2023-08-31T11:02:29;1.77;;;0.57;;
39848;SDS011;25518;47.878;15.914;2023-08-31T11:05:12;1.05;;;0.65;;
39848;SDS011;25518;47.878;15.914;2023-08-31T11:07:46;1.27;;;0.60;;
39848;SDS011;25518;47.878;15.914;2023-08-31T11:10:22;0.60;;;0.40;;
39848;SDS011;25518;47.878;15.914;2023-08-31T11:12:54;1.60;;;0.70;;
39848;SDS011;25518;47.878;15.914;2023-08-31T11:15:27;0.80;;;0.45;;
39848;SDS011;25518;47.878;15.914;2023-08-31T11:18:00;1.00;;;0.60;;
39848;SDS011;25518;47.878;15.914;2023-08-31T11:20:31;1.35;;;0.70;;
39848;SDS011;25518;47.878;15.914;2023-08-31T11:23:02;1.43;;;0.50;;
39848;SDS011;25518;47.878;15.914;2023-08-31T11:25:34;2.20;;;0.68;;
39848;SDS011;25518;47.878;15.914;2023-08-31T11:28:06;1.60;;;0.73;;
39848;SDS011;25518;47.878;15.914;2023-08-31T11:30:38;1.30;;;0.80;;
39848;SDS011;25518;47.878;15.914;2023-08-31T11:33:10;1.33;;;0.68;;
39848;SDS011;25518;47.878;15.914;2023-08-31T11:35:42;1.52;;;0.70;;
39848;SDS011;25518;47.878;15.914;2023-08-31T11:38:15;1.00;;;0.63;;
39848;SDS011;25518;47.878;15.914;2023-08-31T11:40:47;0.98;;;0.50;;
39848;SDS011;25518;47.878;15.914;2023-08-31T11:43:18;0.97;;;0.60;;
39848;SDS011;25518;47.878;15.914;2023-08-31T11:45:50;0.98;;;0.60;;
39848;SDS011;25518;47.878;15.914;2023-08-31T11:48:22;2.15;;;0.82;;
39848;SDS011;25518;47.878;15.914;2023-08-31T11:50:53;1.00;;;0.67;;
39848;SDS011;25518;47.878;15.914;2023-08-31T11:53:24;1.52;;;0.85;;
39848;SDS011;25518;47.878;15.914;2023-08-31T11:55:57;1.42;;;0.80;;
39848;SDS011;25518;47.878;15.914;2023-08-31T11:58:32;1.52;;;0.68;;
39848;SDS011;25518;47.878;15.914;2023-08-31T12:01:10;1.75;;;0.75;;
39848;SDS011;25518;47.878;15.914;2023-08-31T12:03:50;1.50;;;0.65;;
39848;SDS011;25518;47.878;15.914;2023-08-31T12:06:21;1.17;;;0.60;;
39848;SDS011;25518;47.878;15.914;2023-08-31T12:08:52;2.50;;;0.60;;
39848;SDS011;25518;47.878;15.914;2023-08-31T12:11:24;1.50;;;0.60;;
39848;SDS011;25518;47.878;15.914;2023-08-31T12:13:55;1.10;;;0.60;;
39848;SDS011;25518;47.878;15.914;2023-08-31T12:16:32;0.95;;;0.50;;
39848;SDS011;25518;47.878;15.914;2023-08-31T12:19:06;1.45;;;0.63;;
39848;SDS011;25518;47.878;15.914;2023-08-31T12:21:37;1.58;;;0.60;;
39848;SDS011;25518;47.878;15.914;2023-08-31T12:24:08;1.15;;;0.60;;
39848;SDS011;25518;47.878;15.914;2023-08-31T12:26:39;2.72;;;0.77;;
39848;SDS011;25518;47.878;15.914;2023-08-31T12:29:10;1.27;;;0.60;;
39848;SDS011;25518;47.878;15.914;2023-08-31T12:31:42;0.70;;;0.40;;
39848;SDS011;25518;47.878;15.914;2023-08-31T12:34:13;1.35;;;0.60;;
39848;SDS011;25518;47.878;15.914;2023-08-31T12:36:44;1.20;;;0.55;;
39848;SDS011;25518;47.878;15.914;2023-08-31T12:39:15;1.80;;;0.70;;
39848;SDS011;25518;47.878;15.914;2023-08-31T12:41:47;1.17;;;0.60;;
39848;SDS011;25518;47.878;15.914;2023-08-31T12:44:18;2.40;;;0.68;;
39848;SDS011;25518;47.878;15.914;2023-08-31T12:46:49;1.33;;;0.65;;
39848;SDS011;25518;47.878;15.914;2023-08-31T12:49:20;1.20;;;0.60;;
39848;SDS011;25518;47.878;15.914;2023-08-31T12:51:52;1.67;;;0.77;;
39848;SDS011;25518;47.878;15.914;2023-08-31T12:54:23;1.05;;;0.50;;
39848;SDS011;25518;47.878;15.914;2023-08-31T12:56:54;1.38;;;0.70;;
39848;SDS011;25518;47.878;15.914;2023-08-31T12:59:24;1.58;;;0.65;;
39848;SDS011;25518;47.878;15.914;2023-08-31T13:01:55;1.57;;;0.50;;
39848;SDS011;25518;47.878;15.914;2023-08-31T13:04:27;1.50;;;0.70;;
39848;SDS011;25518;47.878;15.914;2023-08-31T13:06:58;1.93;;;0.60;;
39848;SDS011;25518;47.878;15.914;2023-08-31T13:09:29;1.67;;;0.70;;
39848;SDS011;25518;47.878;15.914;2023-08-31T13:12:00;1.42;;;0.70;;
39848;SDS011;25518;47.878;15.914;2023-08-31T13:14:31;1.25;;;0.68;;
39848;SDS011;25518;47.878;15.914;2023-08-31T13:17:02;1.30;;;0.52;;
39848;SDS011;25518;47.878;15.914;2023-08-31T13:19:34;1.27;;;0.60;;
39848;SDS011;25518;47.878;15.914;2023-08-31T13:22:05;1.02;;;0.50;;
39848;SDS011;25518;47.878;15.914;2023-08-31T13:24:35;2.22;;;0.80;;
39848;SDS011;25518;47.878;15.914;2023-08-31T13:27:06;1.60;;;0.60;;
39848;SDS011;25518;47.878;15.914;2023-08-31T13:29:37;1.47;;;0.70;;
39848;SDS011;25518;47.878;15.914;2023-08-31T13:32:08;1.17;;;0.67;;
39848;SDS011;25518;47.878;15.914;2023-08-31T13:34:40;0.80;;;0.55;;
39848;SDS011;25518;47.878;15.914;2023-08-31T13:37:11;1.60;;;0.90;;
39848;SDS011;25518;47.878;15.914;2023-08-31T13:39:42;1.13;;;0.60;;
39848;SDS011;25518;47.878;15.914;2023-08-31T13:42:13;1.52;;;0.60;;
39848;SDS011;25518;47.878;15.914;2023-08-31T13:44:44;1.58;;;0.70;;
39848;SDS011;25518;47.878;15.914;2023-08-31T13:47:15;1.60;;;0.70;;
39848;SDS011;25518;47.878;15.914;2023-08-31T13:49:46;1.35;;;0.70;;
39848;SDS011;25518;47.878;15.914;2023-08-31T13:52:17;2.00;;;0.70;;
39848;SDS011;25518;47.878;15.914;2023-08-31T13:54:51;1.00;;;0.50;;
39848;SDS011;25518;47.878;15.914;2023-08-31T13:57:23;1.13;;;0.70;;
39848;SDS011;25518;47.878;15.914;2023-08-31T13:59:53;2.53;;;0.63;;
39848;SDS011;25518;47.878;15.914;2023-08-31T14:02:24;2.15;;;0.98;;
39848;SDS011;25518;47.878;15.914;2023-08-31T14:04:56;1.85;;;0.70;;
39848;SDS011;25518;47.878;15.914;2023-08-31T14:07:27;1.00;;;0.60;;
39848;SDS011;25518;47.878;15.914;2023-08-31T14:09:58;1.93;;;0.87;;
39848;SDS011;25518;47.878;15.914;2023-08-31T14:12:29;1.77;;;0.80;;
39848;SDS011;25518;47.878;15.914;2023-08-31T14:15:00;1.20;;;0.63;;
39848;SDS011;25518;47.878;15.914;2023-08-31T14:17:33;1.80;;;0.80;;
39848;SDS011;25518;47.878;15.914;2023-08-31T14:20:05;0.73;;;0.52;;
39848;SDS011;25518;47.878;15.914;2023-08-31T14:22:39;1.27;;;0.75;;
39848;SDS011;25518;47.878;15.914;2023-08-31T14:25:14;1.48;;;0.75;;
39848;SDS011;25518;47.878;15.914;2023-08-31T14:27:46;1.95;;;0.75;;
39848;SDS011;25518;47.878;15.914;2023-08-31T14:30:18;1.60;;;0.73;;
39848;SDS011;25518;47.878;15.914;2023-08-31T14:32:49;1.25;;;0.65;;
39848;SDS011;25518;47.878;15.914;2023-08-31T14:35:20;1.35;;;0.68;;
39848;SDS011;25518;47.878;15.914;2023-08-31T14:37:51;1.25;;;0.70;;
39848;SDS011;25518;47.878;15.914;2023-08-31T14:40:22;1.27;;;0.70;;
39848;SDS011;25518;47.878;15.914;2023-08-31T14:42:53;1.77;;;0.70;;
39848;SDS011;25518;47.878;15.914;2023-08-31T14:45:24;1.35;;;0.75;;
39848;SDS011;25518;47.878;15.914;2023-08-31T14:47:55;1.48;;;0.80;;
39848;SDS011;25518;47.878;15.914;2023-08-31T14:50:26;1.50;;;0.77;;
39848;SDS011;25518;47.878;15.914;2023-08-31T14:52:57;1.00;;;0.57;;
39848;SDS011;25518;47.878;15.914;2023-08-31T14:55:28;1.67;;;0.80;;
39848;SDS011;25518;47.878;15.914;2023-08-31T14:57:59;1.05;;;0.70;;
39848;SDS011;25518;47.878;15.914;2023-08-31T15:00:30;1.38;;;0.70;;
39848;SDS011;25518;47.878;15.914;2023-08-31T15:03:00;1.02;;;0.63;;
39848;SDS011;25518;47.878;15.914;2023-08-31T15:05:34;2.97;;;1.02;;
39848;SDS011;25518;47.878;15.914;2023-08-31T15:08:05;1.75;;;0.80;;
39848;SDS011;25518;47.878;15.914;2023-08-31T15:10:37;2.45;;;0.80;;
39848;SDS011;25518;47.878;15.914;2023-08-31T15:13:08;2.13;;;0.75;;
39848;SDS011;25518;47.878;15.914;2023-08-31T15:15:41;1.60;;;0.73;;
39848;SDS011;25518;47.878;15.914;2023-08-31T15:18:15;1.63;;;0.70;;
39848;SDS011;25518;47.878;15.914;2023-08-31T15:20:47;1.25;;;0.65;;
39848;SDS011;25518;47.878;15.914;2023-08-31T15:23:18;1.08;;;0.70;;
39848;SDS011;25518;47.878;15.914;2023-08-31T15:25:49;1.15;;;0.63;;
39848;SDS011;25518;47.878;15.914;2023-08-31T15:28:20;1.40;;;0.80;;
39848;SDS011;25518;47.878;15.914;2023-08-31T15:30:50;1.88;;;0.80;;
39848;SDS011;25518;47.878;15.914;2023-08-31T15:33:22;1.48;;;0.77;;